createdAt,value
2022-07-29T00:01:03.270Z,1.30
2022-07-29T00:03:30.374Z,1.00
2022-07-29T00:05:57.494Z,1.00
2022-07-29T00:08:24.567Z,1.48
2022-07-29T00:10:52.438Z,1.10
2022-07-29T00:13:31.805Z,1.00
2022-07-29T00:16:04.496Z,0.98
2022-07-29T00:18:33.006Z,1.40
2022-07-29T00:21:00.310Z,1.00
2022-07-29T00:23:27.400Z,1.20
2022-07-29T00:25:54.521Z,1.20
2022-07-29T00:28:21.512Z,1.13
2022-07-29T00:30:48.540Z,1.33
2022-07-29T00:33:15.664Z,1.23
2022-07-29T00:35:45.646Z,2.22
2022-07-29T00:38:14.821Z,1.10
2022-07-29T00:40:43.248Z,1.10
2022-07-29T00:43:12.519Z,1.25
2022-07-29T00:45:39.659Z,1.92
2022-07-29T00:48:07.570Z,1.52
2022-07-29T00:50:34.676Z,1.50
2022-07-29T00:53:03.463Z,1.60
2022-07-29T00:55:31.021Z,1.52
2022-07-29T00:57:59.235Z,2.10
2022-07-29T01:00:28.853Z,2.10
2022-07-29T01:02:55.965Z,1.70
2022-07-29T01:05:25.905Z,1.95
2022-07-29T01:08:15.371Z,1.48
2022-07-29T01:10:44.874Z,1.50
2022-07-29T01:13:13.067Z,1.80
2022-07-29T01:15:59.511Z,1.77
2022-07-29T01:18:38.899Z,1.70
2022-07-29T01:21:43.491Z,1.88
2022-07-29T01:24:33.002Z,1.60
2022-07-29T01:27:18.363Z,1.67
2022-07-29T01:29:59.803Z,2.15
2022-07-29T01:32:35.533Z,1.80
2022-07-29T01:35:39.352Z,1.88
2022-07-29T01:38:23.146Z,1.75
2022-07-29T01:41:06.075Z,2.05
2022-07-29T01:43:45.104Z,1.88
2022-07-29T01:46:20.440Z,2.53
2022-07-29T01:48:54.464Z,1.63
2022-07-29T01:51:32.694Z,2.00
2022-07-29T01:54:20.924Z,2.00
2022-07-29T01:56:52.679Z,1.77
2022-07-29T01:59:21.608Z,1.98
2022-07-29T02:01:51.786Z,2.13
2022-07-29T02:04:29.395Z,2.00
2022-07-29T02:07:03.823Z,2.00
2022-07-29T02:09:33.957Z,2.25
2022-07-29T02:12:03.013Z,2.35
2022-07-29T02:14:37.439Z,2.17
2022-07-29T02:17:05.660Z,2.10
2022-07-29T02:19:35.093Z,2.28
2022-07-29T02:22:03.103Z,2.03
2022-07-29T02:24:32.060Z,2.42
2022-07-29T02:27:01.832Z,2.25
2022-07-29T02:29:31.162Z,2.13
2022-07-29T02:32:01.396Z,2.30
2022-07-29T02:34:29.225Z,2.58
2022-07-29T02:36:57.663Z,2.25
2022-07-29T02:39:27.412Z,2.38
2022-07-29T02:42:05.387Z,2.38
2022-07-29T02:44:34.916Z,2.10
2022-07-29T02:47:12.718Z,2.33
2022-07-29T02:49:53.648Z,2.45
2022-07-29T02:52:42.833Z,2.72
2022-07-29T02:55:19.997Z,2.70
2022-07-29T02:58:22.075Z,2.45
2022-07-29T03:00:52.717Z,2.92
2022-07-29T03:03:22.217Z,2.42
2022-07-29T03:05:49.315Z,2.10
2022-07-29T03:08:17.215Z,2.90
2022-07-29T03:10:48.097Z,2.67
2022-07-29T03:13:15.712Z,2.80
2022-07-29T03:15:45.792Z,2.40
2022-07-29T03:18:13.312Z,2.47
2022-07-29T03:20:41.497Z,2.45
2022-07-29T03:23:09.931Z,2.38
2022-07-29T03:25:37.315Z,2.78
2022-07-29T03:28:04.468Z,2.75
2022-07-29T03:30:31.739Z,3.10
2022-07-29T03:32:59.242Z,2.47
2022-07-29T03:35:26.459Z,2.40
2022-07-29T03:37:54.657Z,2.58
2022-07-29T03:40:28.838Z,2.92
2022-07-29T03:42:57.642Z,2.35
2022-07-29T03:45:26.398Z,2.92
2022-07-29T03:48:01.159Z,2.63
2022-07-29T03:50:31.627Z,2.67
2022-07-29T03:52:59.637Z,2.33
2022-07-29T03:55:29.279Z,2.83
2022-07-29T03:57:59.477Z,2.53
2022-07-29T04:00:28.242Z,2.67
2022-07-29T04:02:55.218Z,2.90
2022-07-29T04:05:22.226Z,2.90
2022-07-29T04:07:50.078Z,2.42
2022-07-29T04:10:30.545Z,3.10
2022-07-29T04:13:00.481Z,3.25
2022-07-29T04:15:31.419Z,3.30
2022-07-29T04:18:00.355Z,3.38
2022-07-29T04:20:27.868Z,3.05
2022-07-29T04:22:55.186Z,3.30
2022-07-29T04:25:22.307Z,3.28
2022-07-29T04:28:01.333Z,2.92
2022-07-29T04:30:28.482Z,2.72
2022-07-29T04:32:55.518Z,3.63
2022-07-29T04:35:23.189Z,3.10
2022-07-29T04:37:50.191Z,2.78
2022-07-29T04:40:17.270Z,3.42
2022-07-29T04:42:46.871Z,3.40
2022-07-29T04:45:15.334Z,3.38
2022-07-29T04:47:43.454Z,3.65
2022-07-29T04:50:11.305Z,3.22
2022-07-29T04:52:38.728Z,2.90
2022-07-29T04:55:07.066Z,3.28
2022-07-29T04:57:34.445Z,3.40
2022-07-29T05:00:02.017Z,3.38
2022-07-29T05:02:29.136Z,3.22
2022-07-29T05:04:56.337Z,3.10
2022-07-29T05:07:23.882Z,3.38
2022-07-29T05:09:50.898Z,3.45
2022-07-29T05:12:17.913Z,3.17
2022-07-29T05:14:44.907Z,3.28
2022-07-29T05:17:11.981Z,3.60
2022-07-29T05:19:39.704Z,3.40
2022-07-29T05:22:07.079Z,3.38
2022-07-29T05:24:34.149Z,2.80
2022-07-29T05:27:01.163Z,2.83
2022-07-29T05:29:44.089Z,3.03
2022-07-29T05:32:13.615Z,3.33
2022-07-29T05:34:50.796Z,2.75
2022-07-29T05:37:20.776Z,3.28
2022-07-29T05:39:50.601Z,3.42
2022-07-29T05:42:25.368Z,3.33
2022-07-29T05:44:53.125Z,3.65
2022-07-29T05:47:20.271Z,2.80
2022-07-29T05:49:47.317Z,3.13
2022-07-29T05:52:14.667Z,3.08
2022-07-29T05:54:41.978Z,3.00
2022-07-29T05:57:09.227Z,2.97
2022-07-29T05:59:39.383Z,3.03
2022-07-29T06:02:06.553Z,3.40
2022-07-29T06:04:34.731Z,3.20
2022-07-29T06:07:02.709Z,3.47
2022-07-29T06:09:30.228Z,3.25
2022-07-29T06:11:58.858Z,3.25
2022-07-29T06:14:27.546Z,3.28
2022-07-29T06:16:54.929Z,3.00
2022-07-29T06:19:22.398Z,3.50
2022-07-29T06:21:49.733Z,2.70
2022-07-29T06:24:17.568Z,3.20
2022-07-29T06:26:45.028Z,2.80
2022-07-29T06:29:13.069Z,3.50
2022-07-29T06:31:40.316Z,4.25
2022-07-29T06:34:07.701Z,3.60
2022-07-29T06:36:39.680Z,3.78
2022-07-29T06:39:08.484Z,3.78
2022-07-29T06:41:36.509Z,3.47
2022-07-29T06:44:05.558Z,3.53
2022-07-29T06:46:33.306Z,3.47
2022-07-29T06:49:02.548Z,3.35
2022-07-29T06:51:29.938Z,2.92
2022-07-29T06:54:02.286Z,3.38
2022-07-29T06:56:38.186Z,3.70
2022-07-29T06:59:10.966Z,2.97
2022-07-29T07:01:40.007Z,4.20
2022-07-29T07:04:07.771Z,3.00
2022-07-29T07:06:34.833Z,3.40
2022-07-29T07:09:02.602Z,3.33
2022-07-29T07:11:30.092Z,3.75
2022-07-29T07:14:02.594Z,3.30
2022-07-29T07:16:30.449Z,3.60
2022-07-29T07:18:57.499Z,3.85
2022-07-29T07:21:25.353Z,3.50
2022-07-29T07:23:52.363Z,3.45
2022-07-29T07:26:19.437Z,3.03
2022-07-29T07:28:46.444Z,3.20
2022-07-29T07:31:13.494Z,2.85
2022-07-29T07:33:40.553Z,2.50
2022-07-29T07:36:07.715Z,2.83
2022-07-29T07:38:34.970Z,3.08
2022-07-29T07:41:02.297Z,2.72
2022-07-29T07:43:29.370Z,2.70
2022-07-29T07:45:56.559Z,2.78
2022-07-29T07:48:23.739Z,2.67
2022-07-29T07:50:51.658Z,2.65
2022-07-29T07:53:19.017Z,2.75
2022-07-29T07:56:09.817Z,2.70
2022-07-29T07:58:33.882Z,2.78
2022-07-29T08:01:00.928Z,3.05
2022-07-29T08:03:28.257Z,3.28
2022-07-29T08:05:55.475Z,2.67
2022-07-29T08:08:22.674Z,3.10
2022-07-29T08:11:00.610Z,3.00
2022-07-29T08:13:31.436Z,2.85
2022-07-29T08:16:00.758Z,3.00
2022-07-29T08:18:30.402Z,3.60
2022-07-29T08:20:58.573Z,3.05
2022-07-29T08:23:32.915Z,3.05
2022-07-29T08:26:15.011Z,3.42
2022-07-29T08:28:47.328Z,4.00
2022-07-29T08:31:14.850Z,3.05
2022-07-29T08:33:42.575Z,2.95
2022-07-29T08:36:11.061Z,2.83
2022-07-29T08:38:38.118Z,2.92
2022-07-29T08:41:05.237Z,2.95
2022-07-29T08:43:33.289Z,3.17
2022-07-29T08:46:01.305Z,2.97
2022-07-29T08:48:28.336Z,2.97
2022-07-29T08:50:57.922Z,2.55
2022-07-29T08:53:28.074Z,2.83
2022-07-29T08:55:57.053Z,2.90
2022-07-29T08:58:25.998Z,2.63
2022-07-29T09:00:57.849Z,3.00
2022-07-29T09:03:31.062Z,2.88
2022-07-29T09:06:00.477Z,2.55
2022-07-29T09:08:28.259Z,2.63
2022-07-29T09:10:59.405Z,2.67
2022-07-29T09:13:27.269Z,2.47
2022-07-29T09:15:54.917Z,3.10
2022-07-29T09:18:48.575Z,2.65
2022-07-29T09:21:36.978Z,2.40
2022-07-29T09:24:12.567Z,2.22
2022-07-29T09:26:46.322Z,2.47
2022-07-29T09:29:23.151Z,2.40
2022-07-29T09:31:53.647Z,2.00
2022-07-29T09:34:32.551Z,2.70
2022-07-29T09:36:59.643Z,2.38
2022-07-29T09:39:38.853Z,2.15
2022-07-29T09:42:07.624Z,2.05
2022-07-29T09:44:51.057Z,2.40
2022-07-29T09:47:20.020Z,2.33
2022-07-29T09:50:01.008Z,2.15
2022-07-29T09:52:30.990Z,2.53
2022-07-29T09:55:09.837Z,3.20
2022-07-29T09:57:41.014Z,2.67
2022-07-29T10:00:11.915Z,2.95
2022-07-29T10:02:42.480Z,2.70
2022-07-29T10:05:25.127Z,2.80
2022-07-29T10:07:57.341Z,2.63
2022-07-29T10:10:34.756Z,2.38
2022-07-29T10:13:09.807Z,1.92
2022-07-29T10:15:45.298Z,2.25
2022-07-29T10:18:14.549Z,2.13
2022-07-29T10:20:41.847Z,2.58
2022-07-29T10:23:09.996Z,2.30
2022-07-29T10:25:37.141Z,2.25
2022-07-29T10:28:06.352Z,2.78
2022-07-29T10:30:33.594Z,1.88
2022-07-29T10:33:27.624Z,2.67
2022-07-29T10:36:22.377Z,2.67
2022-07-29T10:39:18.588Z,2.35
2022-07-29T10:42:33.892Z,2.30
2022-07-29T10:45:04.336Z,2.97
2022-07-29T10:47:32.551Z,2.25
2022-07-29T10:50:07.523Z,2.53
2022-07-29T10:52:57.622Z,2.70
2022-07-29T10:55:45.607Z,2.55
2022-07-29T10:58:19.963Z,2.85
2022-07-29T11:00:56.350Z,3.05
2022-07-29T11:03:50.454Z,2.75
2022-07-29T11:06:28.107Z,2.42
2022-07-29T11:09:30.162Z,2.60
2022-07-29T11:12:04.852Z,2.90
2022-07-29T11:15:03.492Z,2.63
2022-07-29T11:17:37.416Z,2.70
2022-07-29T11:20:47.800Z,2.53
2022-07-29T11:23:40.381Z,1.90
2022-07-29T11:26:23.172Z,2.30
2022-07-29T11:28:55.857Z,2.00
2022-07-29T11:31:45.639Z,1.90
2022-07-29T11:34:30.620Z,1.83
2022-07-29T11:37:13.554Z,2.10
2022-07-29T11:39:48.562Z,2.20
2022-07-29T11:42:32.138Z,1.80
2022-07-29T11:45:41.082Z,1.92
2022-07-29T11:48:28.955Z,2.13
2022-07-29T11:50:48.538Z,2.50
2022-07-29T11:53:16.470Z,2.45
2022-07-29T11:55:51.609Z,2.05
2022-07-29T11:58:25.220Z,2.13
2022-07-29T12:00:55.465Z,1.50
2022-07-29T12:03:34.191Z,1.77
2022-07-29T12:07:02.573Z,1.90
2022-07-29T12:09:14.632Z,2.28
2022-07-29T12:11:41.913Z,2.58
2022-07-29T12:14:29.712Z,1.70
2022-07-29T12:16:57.752Z,1.42
2022-07-29T12:19:26.789Z,1.30
2022-07-29T12:21:59.563Z,1.20
2022-07-29T12:24:27.374Z,1.58
2022-07-29T12:27:00.808Z,1.60
2022-07-29T12:29:34.701Z,1.63
2022-07-29T12:32:14.936Z,1.60
2022-07-29T12:34:46.860Z,1.45
2022-07-29T12:37:14.077Z,1.58
2022-07-29T12:39:41.307Z,1.58
2022-07-29T12:42:18.708Z,1.67
2022-07-29T12:44:51.386Z,1.30
2022-07-29T12:47:20.666Z,1.67
2022-07-29T12:49:49.033Z,1.50
2022-07-29T12:52:35.045Z,1.73
2022-07-29T12:55:03.344Z,1.40
2022-07-29T12:57:32.978Z,1.50
2022-07-29T13:00:12.520Z,1.48
2022-07-29T13:02:42.240Z,1.23
2022-07-29T13:05:12.051Z,1.40
2022-07-29T13:07:55.495Z,1.40
2022-07-29T13:10:26.509Z,1.58
2022-07-29T13:13:16.396Z,1.20
2022-07-29T13:15:47.980Z,1.23
2022-07-29T13:18:37.253Z,1.30
2022-07-29T13:21:18.876Z,1.30
2022-07-29T13:23:46.101Z,1.42
2022-07-29T13:26:13.477Z,1.45
2022-07-29T13:28:41.008Z,1.60
2022-07-29T13:31:11.731Z,2.05
2022-07-29T13:33:38.808Z,1.58
2022-07-29T13:36:06.079Z,1.48
2022-07-29T13:38:33.066Z,1.67
2022-07-29T13:41:00.291Z,1.52
2022-07-29T13:43:27.438Z,1.40
2022-07-29T13:45:54.731Z,1.13
2022-07-29T13:48:21.844Z,1.60
2022-07-29T13:50:49.237Z,1.42
2022-07-29T13:53:17.956Z,1.50
2022-07-29T13:55:45.577Z,1.30
2022-07-29T13:58:12.628Z,1.25
2022-07-29T14:00:39.672Z,1.30
2022-07-29T14:03:07.471Z,1.35
2022-07-29T14:05:34.667Z,1.65
2022-07-29T14:08:01.670Z,1.38
2022-07-29T14:10:28.754Z,1.30
2022-07-29T14:12:55.739Z,1.38
2022-07-29T14:15:24.344Z,1.30
2022-07-29T14:17:51.428Z,1.50
2022-07-29T14:20:18.933Z,1.38
2022-07-29T14:22:45.994Z,1.58
2022-07-29T14:25:14.987Z,1.70
2022-07-29T14:27:44.645Z,1.00
2022-07-29T14:30:12.322Z,1.60
2022-07-29T14:32:39.693Z,1.40
2022-07-29T14:35:08.857Z,1.70
2022-07-29T14:37:40.193Z,1.08
2022-07-29T14:40:10.141Z,1.38
2022-07-29T14:42:38.497Z,1.83
2022-07-29T14:45:08.017Z,1.30
2022-07-29T14:47:35.325Z,1.15
2022-07-29T14:50:02.914Z,1.45
2022-07-29T14:52:30.296Z,1.23
2022-07-29T14:54:57.462Z,1.38
2022-07-29T14:57:24.587Z,1.20
2022-07-29T14:59:51.722Z,1.17
2022-07-29T15:02:18.939Z,1.42
2022-07-29T15:04:47.043Z,1.42
2022-07-29T15:07:14.249Z,1.35
2022-07-29T15:09:49.427Z,1.20
2022-07-29T15:12:17.601Z,1.35
2022-07-29T15:14:44.650Z,1.27
2022-07-29T15:17:11.925Z,1.40
2022-07-29T15:19:39.542Z,1.08
2022-07-29T15:22:15.191Z,1.10
2022-07-29T15:24:42.855Z,1.10
2022-07-29T15:27:15.097Z,1.33
2022-07-29T15:29:43.776Z,1.10
2022-07-29T15:32:13.969Z,1.30
2022-07-29T15:34:41.245Z,1.50
2022-07-29T15:37:08.562Z,1.38
2022-07-29T15:39:35.812Z,1.13
2022-07-29T15:42:04.182Z,1.25
2022-07-29T15:44:31.553Z,1.15
2022-07-29T15:47:04.835Z,1.27
2022-07-29T15:49:47.463Z,1.40
2022-07-29T15:52:25.388Z,1.10
2022-07-29T15:54:55.786Z,1.00
2022-07-29T15:57:24.671Z,1.27
2022-07-29T15:59:52.425Z,1.30
2022-07-29T16:02:19.844Z,1.30
2022-07-29T16:04:47.437Z,1.48
2022-07-29T16:07:15.470Z,2.08
2022-07-29T16:09:43.852Z,1.08
2022-07-29T16:12:14.922Z,1.20
2022-07-29T16:14:44.376Z,1.42
2022-07-29T16:17:14.520Z,1.30
2022-07-29T16:19:43.694Z,1.60
2022-07-29T16:22:11.788Z,1.30
2022-07-29T16:24:39.447Z,0.90
2022-07-29T16:27:07.663Z,1.92
2022-07-29T16:29:37.633Z,1.30
2022-07-29T16:32:06.688Z,1.55
2022-07-29T16:34:37.195Z,1.23
2022-07-29T16:37:05.337Z,1.35
2022-07-29T16:39:35.816Z,1.30
2022-07-29T16:42:05.333Z,1.13
2022-07-29T16:44:33.122Z,1.38
2022-07-29T16:47:01.978Z,1.77
2022-07-29T16:49:32.667Z,1.27
2022-07-29T16:52:00.031Z,1.45
2022-07-29T16:54:31.703Z,1.40
2022-07-29T16:57:01.847Z,0.85
2022-07-29T16:59:30.141Z,1.45
2022-07-29T17:01:58.072Z,1.20
2022-07-29T17:04:27.533Z,1.08
2022-07-29T17:06:58.323Z,1.48
2022-07-29T17:09:25.906Z,1.30
2022-07-29T17:12:02.823Z,1.38
2022-07-29T17:14:32.679Z,1.40
2022-07-29T17:17:02.529Z,1.70
2022-07-29T17:19:36.063Z,1.27
2022-07-29T17:22:14.094Z,1.30
2022-07-29T17:24:46.210Z,1.50
2022-07-29T17:27:13.392Z,1.40
2022-07-29T17:29:41.938Z,1.10
2022-07-29T17:32:10.754Z,1.30
2022-07-29T17:34:40.324Z,1.55
2022-07-29T17:37:09.839Z,1.20
2022-07-29T17:39:40.807Z,1.25
2022-07-29T17:42:10.693Z,1.30
2022-07-29T17:44:38.978Z,1.40
2022-07-29T17:47:09.980Z,1.48
2022-07-29T17:49:44.846Z,1.50
2022-07-29T17:52:12.076Z,1.90
2022-07-29T17:54:39.089Z,1.30
2022-07-29T17:57:06.136Z,1.40
2022-07-29T17:59:33.154Z,1.70
2022-07-29T18:02:00.398Z,1.30
2022-07-29T18:04:28.621Z,1.20
2022-07-29T18:06:56.098Z,1.42
2022-07-29T18:09:23.352Z,1.10
2022-07-29T18:11:51.747Z,1.60
2022-07-29T18:14:19.220Z,1.40
2022-07-29T18:16:46.334Z,1.50
2022-07-29T18:19:13.564Z,1.48
2022-07-29T18:21:45.724Z,1.30
2022-07-29T18:24:21.373Z,1.58
2022-07-29T18:26:48.422Z,2.03
2022-07-29T18:29:15.394Z,1.80
2022-07-29T18:31:42.426Z,1.20
2022-07-29T18:34:09.465Z,1.30
2022-07-29T18:36:36.506Z,1.00
2022-07-29T18:39:03.710Z,1.50
2022-07-29T18:41:30.675Z,1.30
2022-07-29T18:43:57.669Z,1.63
2022-07-29T18:46:25.531Z,1.50
2022-07-29T18:48:52.743Z,1.38
2022-07-29T18:51:19.952Z,1.60
2022-07-29T18:53:46.974Z,1.73
2022-07-29T18:56:14.449Z,1.50
2022-07-29T18:58:41.517Z,1.30
2022-07-29T19:01:09.326Z,1.35
2022-07-29T19:03:37.623Z,1.90
2022-07-29T19:06:04.859Z,1.48
2022-07-29T19:08:32.257Z,1.77
2022-07-29T19:10:59.457Z,1.33
2022-07-29T19:13:26.463Z,1.48
2022-07-29T19:15:53.655Z,1.50
2022-07-29T19:18:21.081Z,1.70
2022-07-29T19:20:48.153Z,1.65
2022-07-29T19:23:15.192Z,1.60
2022-07-29T19:25:53.124Z,1.27
2022-07-29T19:28:20.477Z,1.50
2022-07-29T19:30:47.592Z,1.40
2022-07-29T19:33:17.481Z,1.40
2022-07-29T19:35:45.925Z,1.80
2022-07-29T19:38:14.419Z,1.40
2022-07-29T19:40:41.418Z,1.60
2022-07-29T19:43:50.431Z,1.40
2022-07-29T19:45:57.267Z,1.27
2022-07-29T19:48:24.314Z,1.25
2022-07-29T19:50:51.559Z,1.20
2022-07-29T19:53:18.556Z,1.73
2022-07-29T19:55:48.510Z,1.25
2022-07-29T19:58:15.776Z,1.27
2022-07-29T20:00:43.551Z,1.90
2022-07-29T20:03:10.808Z,1.25
2022-07-29T20:05:38.032Z,1.58
2022-07-29T20:08:06.247Z,1.60
2022-07-29T20:10:34.100Z,1.35
2022-07-29T20:13:01.173Z,1.40
2022-07-29T20:15:28.321Z,1.30
2022-07-29T20:17:57.298Z,1.30
2022-07-29T20:20:25.785Z,1.80
2022-07-29T20:22:54.427Z,1.50
2022-07-29T20:25:21.851Z,1.38
2022-07-29T20:27:52.203Z,1.52
2022-07-29T20:30:23.451Z,1.42
2022-07-29T20:32:50.711Z,1.50
2022-07-29T20:35:19.871Z,1.52
2022-07-29T20:37:56.182Z,1.65
2022-07-29T20:40:25.772Z,1.50
2022-07-29T20:42:54.610Z,1.85
2022-07-29T20:45:23.519Z,1.63
2022-07-29T20:47:51.940Z,1.90
2022-07-29T20:50:20.587Z,1.90
2022-07-29T20:52:51.708Z,1.35
2022-07-29T20:55:18.755Z,1.50
2022-07-29T20:57:45.895Z,1.58
2022-07-29T21:00:13.619Z,1.42
2022-07-29T21:02:40.667Z,1.60
2022-07-29T21:05:08.070Z,1.70
2022-07-29T21:07:35.210Z,1.60
2022-07-29T21:10:02.253Z,1.70
2022-07-29T21:12:30.136Z,1.80
2022-07-29T21:14:57.876Z,1.58
2022-07-29T21:17:25.427Z,1.92
2022-07-29T21:19:53.369Z,1.60
2022-07-29T21:22:22.277Z,1.75
2022-07-29T21:24:49.766Z,1.92
2022-07-29T21:27:38.328Z,1.55
2022-07-29T21:30:08.096Z,2.30
2022-07-29T21:32:35.307Z,1.70
2022-07-29T21:35:02.533Z,1.80
2022-07-29T21:37:29.573Z,1.60
2022-07-29T21:39:56.808Z,1.85
2022-07-29T21:42:24.461Z,1.98
2022-07-29T21:44:51.616Z,1.90
2022-07-29T21:47:18.647Z,1.92
2022-07-29T21:49:46.648Z,1.80
2022-07-29T21:52:15.756Z,1.65
2022-07-29T21:54:45.275Z,1.60
2022-07-29T21:57:12.244Z,1.67
2022-07-29T21:59:39.236Z,1.55
2022-07-29T22:02:06.386Z,1.63
2022-07-29T22:04:35.732Z,1.80
2022-07-29T22:07:03.087Z,1.58
2022-07-29T22:09:30.582Z,1.70
2022-07-29T22:11:57.602Z,2.40
2022-07-29T22:14:24.571Z,1.90
2022-07-29T22:16:52.678Z,2.20
2022-07-29T22:19:27.627Z,2.15
2022-07-29T22:21:57.099Z,1.58
2022-07-29T22:24:24.126Z,2.03
2022-07-29T22:26:51.216Z,2.15
2022-07-29T22:29:18.932Z,2.17
2022-07-29T22:31:45.997Z,1.70
2022-07-29T22:34:13.454Z,2.35
2022-07-29T22:36:41.347Z,1.77
2022-07-29T22:39:08.640Z,2.03
2022-07-29T22:41:35.691Z,1.73
2022-07-29T22:44:02.812Z,1.85
2022-07-29T22:46:29.897Z,2.45
2022-07-29T22:48:58.133Z,1.92
2022-07-29T22:51:25.362Z,2.05
2022-07-29T22:53:52.654Z,2.15
2022-07-29T22:56:21.042Z,1.85
2022-07-29T22:58:49.036Z,1.75
2022-07-29T23:01:17.799Z,2.08
2022-07-29T23:04:05.027Z,1.80
2022-07-29T23:06:32.179Z,1.92
2022-07-29T23:08:59.162Z,2.22
2022-07-29T23:11:26.145Z,1.90
2022-07-29T23:13:53.098Z,2.10
2022-07-29T23:16:26.289Z,2.30
2022-07-29T23:18:54.748Z,1.92
2022-07-29T23:21:21.857Z,2.40
2022-07-29T23:23:49.305Z,2.95
2022-07-29T23:26:17.070Z,2.45
2022-07-29T23:28:45.705Z,2.10
2022-07-29T23:31:13.630Z,2.45
2022-07-29T23:33:43.672Z,2.55
2022-07-29T23:36:10.776Z,2.95
2022-07-29T23:38:41.032Z,2.90
2022-07-29T23:41:09.781Z,3.40
2022-07-29T23:43:37.978Z,2.92
2022-07-29T23:46:06.426Z,3.05
2022-07-29T23:48:34.419Z,3.30
2022-07-29T23:51:01.662Z,2.70
2022-07-29T23:53:29.017Z,3.35
2022-07-29T23:55:56.623Z,2.97
2022-07-29T23:58:23.644Z,3.70
